createdAt,value
2017-11-21T00:02:17.118Z,8.80
2017-11-21T00:04:48.076Z,8.90
2017-11-21T00:07:18.737Z,8.90
2017-11-21T00:09:50.856Z,8.90
2017-11-21T00:12:24.876Z,9.00
2017-11-21T00:14:56.616Z,9.00
2017-11-21T00:17:29.617Z,9.00
2017-11-21T00:20:00.857Z,9.00
2017-11-21T00:22:36.097Z,9.00
2017-11-21T00:25:07.658Z,9.00
2017-11-21T00:27:44.757Z,9.00
2017-11-21T00:30:17.539Z,8.90
2017-11-21T00:32:49.757Z,8.90
2017-11-21T00:35:24.197Z,8.90
2017-11-21T00:37:58.096Z,9.00
2017-11-21T00:40:30.701Z,9.00
2017-11-21T00:43:02.160Z,8.90
2017-11-21T00:45:34.097Z,8.80
2017-11-21T00:48:06.157Z,8.70
2017-11-21T00:50:37.516Z,8.70
2017-11-21T00:53:14.277Z,8.70
2017-11-21T00:55:47.277Z,8.60
2017-11-21T00:58:19.820Z,8.60
2017-11-21T01:00:52.217Z,8.60
2017-11-21T01:03:28.757Z,8.70
2017-11-21T01:06:02.797Z,8.70
2017-11-21T01:08:34.237Z,8.60
2017-11-21T01:11:07.317Z,8.70
2017-11-21T01:13:39.097Z,8.70
2017-11-21T01:16:12.597Z,8.80
2017-11-21T01:18:43.798Z,8.80
2017-11-21T01:21:17.758Z,8.90
2017-11-21T01:23:47.797Z,8.90
2017-11-21T01:26:22.677Z,8.90
2017-11-21T01:28:53.616Z,8.90
2017-11-21T01:31:25.997Z,8.80
2017-11-21T01:33:56.799Z,8.80
2017-11-21T01:36:28.377Z,8.80
2017-11-21T01:39:00.140Z,8.80
2017-11-21T01:41:31.776Z,8.80
2017-11-21T01:44:04.165Z,8.70
2017-11-21T01:46:38.281Z,8.70
2017-11-21T01:49:09.797Z,8.80
2017-11-21T01:51:48.457Z,8.90
2017-11-21T01:54:21.017Z,9.00
2017-11-21T01:56:54.117Z,9.00
2017-11-21T01:59:24.822Z,9.00
2017-11-21T02:01:56.505Z,9.20
2017-11-21T02:04:28.677Z,9.20
2017-11-21T02:07:01.958Z,9.30
2017-11-21T02:09:34.758Z,9.30
2017-11-21T02:12:06.597Z,9.30
2017-11-21T02:14:38.476Z,9.20
2017-11-21T02:17:09.397Z,9.10
2017-11-21T02:19:40.438Z,9.10
2017-11-21T02:22:12.397Z,9.10
2017-11-21T02:24:45.077Z,9.10
2017-11-21T02:27:18.277Z,9.00
2017-11-21T02:29:51.457Z,9.00
2017-11-21T02:32:22.777Z,9.00
2017-11-21T02:34:53.798Z,9.00
2017-11-21T02:37:26.018Z,9.00
2017-11-21T02:40:02.678Z,8.90
2017-11-21T02:42:34.660Z,8.90
2017-11-21T02:45:06.758Z,8.90
2017-11-21T02:47:39.078Z,8.80
2017-11-21T02:50:14.417Z,8.80
2017-11-21T02:52:48.642Z,8.80
2017-11-21T02:55:20.397Z,8.80
2017-11-21T02:57:53.178Z,8.70
2017-11-21T03:00:25.337Z,8.70
2017-11-21T03:02:57.718Z,8.70
2017-11-21T03:05:29.157Z,8.70
2017-11-21T03:08:00.019Z,8.70
2017-11-21T03:10:34.638Z,8.70
2017-11-21T03:13:05.677Z,8.70
2017-11-21T03:15:40.778Z,8.80
2017-11-21T03:18:11.837Z,8.90
2017-11-21T03:20:59.158Z,8.90
2017-11-21T03:23:47.217Z,8.80
2017-11-21T03:26:23.500Z,8.80
2017-11-21T03:28:54.297Z,8.70
2017-11-21T03:31:25.557Z,8.70
2017-11-21T03:33:57.717Z,8.70
2017-11-21T03:36:29.917Z,8.60
2017-11-21T03:39:00.518Z,8.60
2017-11-21T03:41:32.877Z,8.50
2017-11-21T03:44:04.016Z,8.50
2017-11-21T03:46:40.078Z,8.50
2017-11-21T03:49:13.677Z,8.50
2017-11-21T03:51:45.337Z,8.50
2017-11-21T03:54:18.417Z,8.50
2017-11-21T03:56:51.904Z,8.50
2017-11-21T03:59:24.197Z,8.40
2017-11-21T04:01:55.738Z,8.30
2017-11-21T04:04:26.177Z,8.30
2017-11-21T04:06:58.237Z,8.30
2017-11-21T04:09:30.597Z,8.30
2017-11-21T04:12:02.258Z,8.40
2017-11-21T04:14:33.717Z,8.40
2017-11-21T04:17:04.137Z,8.30
2017-11-21T04:19:35.084Z,8.40
2017-11-21T04:22:06.317Z,8.50
2017-11-21T04:24:38.279Z,8.40
2017-11-21T04:27:10.344Z,8.40
2017-11-21T04:29:41.276Z,8.40
2017-11-21T04:32:13.364Z,8.40
2017-11-21T04:34:44.178Z,8.40
2017-11-21T04:37:15.117Z,8.40
2017-11-21T04:39:46.778Z,8.40
2017-11-21T04:42:18.237Z,8.30
2017-11-21T04:44:52.556Z,8.30
2017-11-21T04:47:29.217Z,8.30
2017-11-21T04:49:59.797Z,8.30
2017-11-21T04:52:32.737Z,8.30
2017-11-21T04:55:04.803Z,8.40
2017-11-21T04:57:36.237Z,8.40
2017-11-21T05:00:07.697Z,8.40
2017-11-21T05:02:38.518Z,8.30
2017-11-21T05:05:12.017Z,8.30
2017-11-21T05:07:45.318Z,8.30
2017-11-21T05:10:17.183Z,8.30
2017-11-21T05:12:48.740Z,8.30
2017-11-21T05:15:21.096Z,8.30
2017-11-21T05:17:53.377Z,8.30
2017-11-21T05:20:24.802Z,8.30
2017-11-21T05:22:57.076Z,8.30
2017-11-21T05:25:27.513Z,8.30
2017-11-21T05:28:00.393Z,8.20
2017-11-21T05:30:32.759Z,8.20
2017-11-21T05:33:14.252Z,8.20
2017-11-21T05:35:45.913Z,8.20
2017-11-21T05:38:16.801Z,8.20
2017-11-21T05:40:51.473Z,8.30
2017-11-21T05:43:23.333Z,8.40
2017-11-21T05:45:55.792Z,8.40
2017-11-21T05:48:30.013Z,8.50
2017-11-21T05:51:02.099Z,8.60
2017-11-21T05:53:37.801Z,8.60
2017-11-21T05:56:09.394Z,8.60
2017-11-21T05:58:40.633Z,8.70
2017-11-21T06:01:13.534Z,8.70
2017-11-21T06:03:43.733Z,8.70
2017-11-21T06:06:14.473Z,8.70
2017-11-21T06:08:52.792Z,8.80
2017-11-21T06:11:28.793Z,8.90
2017-11-21T06:13:59.853Z,8.90
2017-11-21T06:16:32.973Z,9.00
2017-11-21T06:19:03.713Z,9.00
2017-11-21T06:21:35.253Z,9.10
2017-11-21T06:24:06.293Z,9.10
2017-11-21T06:26:38.053Z,9.20
2017-11-21T06:29:09.394Z,9.20
2017-11-21T06:31:39.913Z,9.30
2017-11-21T06:34:11.895Z,9.30
2017-11-21T06:36:44.353Z,9.40
2017-11-21T06:39:16.213Z,9.40
2017-11-21T06:41:47.154Z,9.20
2017-11-21T06:44:18.092Z,8.80
2017-11-21T06:46:53.453Z,8.50
2017-11-21T06:49:27.656Z,8.40
2017-11-21T06:52:00.738Z,8.20
2017-11-21T06:54:33.738Z,8.20
2017-11-21T06:57:07.732Z,8.00
2017-11-21T06:59:38.174Z,8.00
2017-11-21T07:02:13.813Z,7.90
2017-11-21T07:04:46.793Z,7.90
2017-11-21T07:07:18.234Z,7.90
2017-11-21T07:09:49.173Z,8.10
2017-11-21T07:12:21.152Z,8.20
2017-11-21T07:14:56.819Z,8.30
2017-11-21T07:17:28.754Z,8.30
2017-11-21T07:20:03.821Z,8.30
2017-11-21T07:22:35.233Z,8.30
2017-11-21T07:25:06.173Z,8.30
2017-11-21T07:27:38.533Z,8.30
2017-11-21T07:30:10.401Z,8.30
2017-11-21T07:32:44.013Z,8.20
2017-11-21T07:35:16.594Z,8.30
2017-11-21T07:37:48.142Z,8.30
2017-11-21T07:40:19.273Z,8.30
2017-11-21T07:42:51.252Z,8.30
2017-11-21T07:45:24.333Z,8.30
2017-11-21T07:47:55.473Z,8.40
2017-11-21T07:50:26.513Z,8.40
2017-11-21T07:53:00.213Z,8.50
2017-11-21T07:55:33.293Z,8.50
2017-11-21T07:58:05.054Z,8.50
2017-11-21T08:00:38.354Z,8.40
2017-11-21T08:03:10.112Z,8.50
2017-11-21T08:05:42.272Z,8.60
2017-11-21T08:08:13.313Z,8.80
2017-11-21T08:10:46.833Z,8.80
2017-11-21T08:13:19.794Z,8.70
2017-11-21T08:15:50.534Z,8.70
2017-11-21T08:18:24.813Z,8.90
2017-11-21T08:20:56.393Z,8.80
2017-11-21T08:23:27.432Z,8.70
2017-11-21T08:26:01.455Z,8.70
2017-11-21T08:28:33.513Z,8.70
2017-11-21T08:31:05.774Z,8.80
2017-11-21T08:33:36.934Z,8.70
2017-11-21T08:36:08.852Z,8.90
2017-11-21T08:38:41.453Z,8.90
2017-11-21T08:41:13.833Z,9.10
2017-11-21T08:43:44.677Z,9.20
2017-11-21T08:46:15.413Z,9.10
2017-11-21T08:48:47.672Z,9.30
2017-11-21T08:51:19.955Z,9.60
2017-11-21T08:53:51.094Z,9.20
2017-11-21T08:56:22.754Z,9.20
2017-11-21T08:58:54.521Z,9.10
2017-11-21T09:01:26.373Z,9.10
2017-11-21T09:03:57.492Z,9.20
2017-11-21T09:06:29.254Z,9.30
2017-11-21T09:09:01.213Z,9.30
2017-11-21T09:11:34.335Z,9.40
2017-11-21T09:14:06.174Z,9.40
2017-11-21T09:16:38.954Z,9.40
2017-11-21T09:19:11.315Z,9.40
2017-11-21T09:21:43.293Z,9.50
2017-11-21T09:24:17.834Z,9.50
2017-11-21T09:26:51.101Z,9.50
2017-11-21T09:29:23.573Z,9.50
2017-11-21T09:31:54.619Z,9.40
2017-11-21T09:34:26.273Z,9.50
2017-11-21T09:36:57.414Z,9.50
2017-11-21T09:39:30.193Z,9.50
2017-11-21T09:42:02.753Z,9.60
2017-11-21T09:44:35.335Z,9.60
2017-11-21T09:47:09.053Z,9.80
2017-11-21T09:49:43.053Z,9.80
2017-11-21T09:52:14.514Z,9.80
2017-11-21T09:54:47.192Z,9.90
2017-11-21T09:57:18.933Z,9.90
2017-11-21T09:59:51.533Z,9.90
2017-11-21T10:02:23.174Z,10.00
2017-11-21T10:04:52.573Z,9.90
2017-11-21T10:07:23.720Z,9.90
2017-11-21T10:09:58.833Z,10.00
2017-11-21T10:12:30.716Z,10.10
2017-11-21T10:15:02.174Z,10.10
2017-11-21T10:17:34.115Z,10.20
2017-11-21T10:20:05.155Z,10.30
2017-11-21T10:22:38.861Z,10.40
2017-11-21T10:25:14.213Z,10.40
2017-11-21T10:27:45.661Z,10.30
2017-11-21T10:30:20.394Z,10.50
2017-11-21T10:32:52.554Z,10.60
2017-11-21T10:35:24.613Z,10.60
2017-11-21T10:37:56.674Z,10.60
2017-11-21T10:40:30.373Z,10.60
2017-11-21T10:43:02.134Z,10.70
2017-11-21T10:45:33.081Z,10.70
2017-11-21T10:48:03.815Z,10.60
2017-11-21T10:50:34.761Z,10.60
2017-11-21T10:53:05.861Z,10.60
2017-11-21T10:55:37.965Z,10.70
2017-11-21T10:58:11.961Z,10.70
2017-11-21T11:00:43.720Z,10.80
2017-11-21T11:03:16.400Z,10.80
2017-11-21T11:05:47.441Z,10.90
2017-11-21T11:08:18.681Z,10.90
2017-11-21T11:10:51.660Z,11.00
2017-11-21T11:13:24.460Z,11.10
2017-11-21T11:15:55.603Z,11.20
2017-11-21T11:18:28.260Z,11.20
2017-11-21T11:21:02.088Z,11.20
2017-11-21T11:23:34.949Z,11.10
2017-11-21T11:26:12.848Z,11.10
2017-11-21T11:28:44.209Z,11.10
2017-11-21T11:31:20.787Z,11.10
2017-11-21T11:33:52.896Z,11.10
2017-11-21T11:36:26.847Z,11.10
2017-11-21T11:38:58.208Z,11.20
2017-11-21T11:41:32.829Z,11.10
2017-11-21T11:44:05.813Z,11.20
2017-11-21T11:46:39.313Z,11.30
2017-11-21T11:49:11.072Z,11.20
2017-11-21T11:51:43.552Z,11.10
2017-11-21T11:54:16.632Z,11.20
2017-11-21T11:56:49.306Z,11.10
2017-11-21T11:59:24.046Z,11.20
2017-11-21T12:01:54.147Z,11.20
2017-11-21T12:04:26.526Z,11.30
2017-11-21T12:06:58.786Z,11.30
2017-11-21T12:09:29.906Z,11.20
2017-11-21T12:12:02.005Z,11.20
2017-11-21T12:14:32.625Z,11.20
2017-11-21T12:17:04.870Z,11.10
2017-11-21T12:19:37.070Z,11.10
2017-11-21T12:22:08.825Z,11.10
2017-11-21T12:24:42.626Z,11.00
2017-11-21T12:27:13.875Z,11.00
2017-11-21T12:29:46.145Z,10.90
2017-11-21T12:32:19.231Z,10.90
2017-11-21T12:34:50.972Z,10.80
2017-11-21T12:37:21.114Z,10.80
2017-11-21T12:39:52.787Z,10.80
2017-11-21T12:42:24.125Z,10.80
2017-11-21T12:44:56.088Z,11.00
2017-11-21T12:47:27.313Z,11.00
2017-11-21T12:49:57.464Z,11.40
2017-11-21T12:52:30.736Z,11.30
2017-11-21T12:55:01.879Z,11.30
2017-11-21T12:57:34.047Z,11.10
2017-11-21T13:00:06.865Z,11.10
2017-11-21T13:02:40.326Z,10.90
2017-11-21T13:05:12.865Z,10.80
2017-11-21T13:07:44.545Z,10.80
2017-11-21T13:10:15.986Z,10.80
2017-11-21T13:12:49.706Z,10.90
2017-11-21T13:15:21.566Z,11.00
2017-11-21T13:17:54.650Z,11.00
2017-11-21T13:20:26.865Z,11.00
2017-11-21T13:22:58.866Z,11.00
2017-11-21T13:25:30.625Z,11.00
2017-11-21T13:28:01.986Z,11.10
2017-11-21T13:30:37.426Z,11.10
2017-11-21T13:33:08.789Z,11.10
2017-11-21T13:35:40.745Z,11.10
2017-11-21T13:38:14.146Z,11.10
2017-11-21T13:40:50.609Z,11.10
2017-11-21T13:43:22.366Z,11.10
2017-11-21T13:45:58.325Z,11.20
2017-11-21T13:48:30.386Z,11.20
2017-11-21T13:51:05.865Z,11.30
2017-11-21T13:53:38.085Z,11.30
2017-11-21T13:56:08.885Z,11.30
2017-11-21T13:58:41.714Z,11.30
2017-11-21T14:01:14.286Z,11.40
2017-11-21T14:03:46.393Z,11.50
2017-11-21T14:06:20.865Z,11.40
2017-11-21T14:08:53.925Z,11.40
2017-11-21T14:11:24.985Z,11.40
2017-11-21T14:13:56.253Z,11.40
2017-11-21T14:16:28.104Z,11.50
2017-11-21T14:19:05.499Z,11.50
2017-11-21T14:21:37.154Z,11.50
2017-11-21T14:24:08.596Z,11.60
2017-11-21T14:26:43.876Z,11.70
2017-11-21T14:29:17.114Z,11.70
2017-11-21T14:31:49.596Z,11.70
2017-11-21T14:34:21.556Z,11.70
2017-11-21T14:36:55.375Z,11.80
2017-11-21T14:39:26.808Z,11.80
2017-11-21T14:41:58.388Z,11.80
2017-11-21T14:44:29.868Z,11.70
2017-11-21T14:47:02.498Z,11.70
2017-11-21T14:49:33.857Z,11.80
2017-11-21T14:52:05.817Z,11.80
2017-11-21T14:54:39.517Z,11.70
2017-11-21T14:57:10.863Z,11.80
2017-11-21T14:59:43.236Z,11.80
2017-11-21T15:02:14.456Z,11.80
2017-11-21T15:04:48.876Z,11.80
2017-11-21T15:07:22.196Z,11.80
2017-11-21T15:09:55.876Z,11.80
2017-11-21T15:12:26.516Z,11.70
2017-11-21T15:14:57.557Z,11.80
2017-11-21T15:17:28.697Z,11.70
2017-11-21T15:20:00.356Z,11.80
2017-11-21T15:22:33.929Z,11.80
2017-11-21T15:25:05.731Z,11.80
2017-11-21T15:27:41.139Z,11.80
2017-11-21T15:30:13.330Z,11.80
2017-11-21T15:32:46.310Z,11.80
2017-11-21T15:35:18.169Z,11.80
2017-11-21T15:37:49.729Z,11.80
2017-11-21T15:40:21.984Z,11.80
2017-11-21T15:42:54.363Z,11.80
2017-11-21T15:45:26.124Z,11.90
2017-11-21T15:47:58.503Z,11.80
2017-11-21T15:50:30.573Z,11.80
2017-11-21T15:53:02.324Z,11.80
2017-11-21T15:55:33.864Z,11.80
2017-11-21T15:58:05.424Z,11.80
2017-11-21T16:00:39.124Z,11.80
2017-11-21T16:03:11.994Z,11.80
2017-11-21T16:05:44.780Z,11.80
2017-11-21T16:08:16.341Z,11.80
2017-11-21T16:10:47.380Z,11.80
2017-11-21T16:13:21.779Z,11.80
2017-11-21T16:15:54.577Z,11.80
2017-11-21T16:18:30.830Z,11.80
2017-11-21T16:21:03.548Z,11.70
2017-11-21T16:23:36.307Z,11.70
2017-11-21T16:26:06.529Z,11.70
2017-11-21T16:28:38.177Z,11.70
2017-11-21T16:31:10.247Z,11.70
2017-11-21T16:33:41.987Z,11.70
2017-11-21T16:36:14.167Z,11.70
2017-11-21T16:38:45.707Z,11.70
2017-11-21T16:41:18.386Z,11.70
2017-11-21T16:43:50.148Z,11.30
2017-11-21T16:46:21.286Z,11.70
2017-11-21T16:48:54.988Z,11.60
2017-11-21T16:51:27.567Z,11.60
2017-11-21T16:54:00.448Z,11.60
2017-11-21T16:56:32.627Z,11.50
2017-11-21T16:59:05.607Z,11.60
2017-11-21T17:01:39.207Z,11.60
2017-11-21T17:04:10.349Z,11.60
2017-11-21T17:06:42.729Z,11.50
2017-11-21T17:09:15.107Z,11.50
2017-11-21T17:11:46.547Z,11.60
2017-11-21T17:14:18.607Z,11.60
2017-11-21T17:16:49.947Z,11.50
2017-11-21T17:19:21.607Z,11.50
2017-11-21T17:21:52.149Z,11.50
2017-11-21T17:24:23.899Z,11.60
2017-11-21T17:26:55.640Z,11.50
2017-11-21T17:29:26.901Z,11.50
2017-11-21T17:31:59.181Z,11.50
2017-11-21T17:34:30.321Z,11.50
2017-11-21T17:37:04.120Z,11.50
2017-11-21T17:39:34.341Z,11.50
2017-11-21T17:42:05.534Z,11.50
2017-11-21T17:44:39.181Z,11.50
2017-11-21T17:47:11.561Z,11.50
2017-11-21T17:49:42.902Z,11.50
2017-11-21T17:52:16.082Z,11.50
2017-11-21T17:54:47.221Z,11.60
2017-11-21T17:57:18.481Z,11.60
2017-11-21T17:59:54.441Z,11.60
2017-11-21T18:02:26.306Z,11.50
2017-11-21T18:04:57.241Z,11.40
2017-11-21T18:07:31.741Z,11.40
2017-11-21T18:10:01.922Z,11.40
2017-11-21T18:12:33.522Z,11.40
2017-11-21T18:15:04.462Z,11.40
2017-11-21T18:17:35.403Z,11.40
2017-11-21T18:20:08.801Z,11.40
2017-11-21T18:22:46.501Z,11.40
2017-11-21T18:25:18.121Z,11.40
2017-11-21T18:27:49.601Z,11.30
2017-11-21T18:30:23.401Z,11.30
2017-11-21T18:33:05.927Z,11.20
2017-11-21T18:35:40.543Z,11.20
2017-11-21T18:38:12.600Z,11.30
2017-11-21T18:40:43.541Z,11.20
2017-11-21T18:43:15.402Z,11.20
2017-11-21T18:45:46.921Z,11.20
2017-11-21T18:48:18.123Z,11.20
2017-11-21T18:50:49.662Z,11.20
2017-11-21T18:53:20.922Z,11.10
2017-11-21T18:55:55.321Z,11.10
2017-11-21T18:58:27.361Z,11.10
2017-11-21T19:01:00.461Z,11.10
2017-11-21T19:03:32.320Z,11.10
2017-11-21T19:06:05.424Z,11.10
2017-11-21T19:08:37.381Z,11.10
2017-11-21T19:11:08.621Z,11.00
2017-11-21T19:13:40.281Z,11.00
2017-11-21T19:16:11.632Z,11.00
2017-11-21T19:18:43.382Z,11.00
2017-11-21T19:21:15.541Z,11.10
2017-11-21T19:23:47.602Z,11.10
2017-11-21T19:26:18.244Z,11.00
2017-11-21T19:28:52.041Z,11.00
2017-11-21T19:31:24.821Z,11.00
2017-11-21T19:33:59.342Z,10.90
2017-11-21T19:36:31.307Z,11.00
2017-11-21T19:39:03.483Z,11.00
2017-11-21T19:41:35.121Z,11.10
2017-11-21T19:44:05.143Z,10.90
2017-11-21T19:46:36.802Z,10.90
2017-11-21T19:49:08.661Z,11.00
2017-11-21T19:51:40.427Z,11.00
2017-11-21T19:54:12.280Z,11.00
2017-11-21T19:56:43.746Z,11.00
2017-11-21T19:59:14.361Z,10.90
2017-11-21T20:01:47.361Z,10.90
2017-11-21T20:04:23.721Z,10.90
2017-11-21T20:06:55.943Z,11.00
2017-11-21T20:09:27.221Z,11.00
2017-11-21T20:11:58.781Z,10.90
2017-11-21T20:14:37.807Z,10.90
2017-11-21T20:17:08.642Z,10.90
2017-11-21T20:19:39.562Z,10.90
2017-11-21T20:22:13.591Z,11.00
2017-11-21T20:24:43.969Z,11.00
2017-11-21T20:27:14.649Z,11.00
2017-11-21T20:29:46.510Z,10.90
2017-11-21T20:32:17.329Z,11.00
2017-11-21T20:34:49.408Z,10.90
2017-11-21T20:37:21.159Z,10.80
2017-11-21T20:39:57.329Z,10.80
2017-11-21T20:42:28.369Z,10.80
2017-11-21T20:45:00.429Z,10.80
2017-11-21T20:47:35.336Z,10.80
2017-11-21T20:50:08.030Z,10.80
2017-11-21T20:52:38.950Z,10.80
2017-11-21T20:55:09.389Z,10.80
2017-11-21T20:57:40.829Z,10.80
2017-11-21T21:00:12.412Z,10.80
2017-11-21T21:02:43.449Z,10.90
2017-11-21T21:05:15.309Z,10.80
2017-11-21T21:07:46.649Z,10.80
2017-11-21T21:10:18.409Z,10.80
2017-11-21T21:12:52.529Z,10.80
2017-11-21T21:15:26.329Z,10.80
2017-11-21T21:18:02.590Z,10.80
2017-11-21T21:20:39.450Z,10.80
2017-11-21T21:23:12.770Z,10.80
2017-11-21T21:25:47.487Z,10.70
2017-11-21T21:28:19.858Z,10.80
2017-11-21T21:30:51.622Z,10.70
2017-11-21T21:33:23.939Z,10.80
2017-11-21T21:35:55.224Z,10.80
2017-11-21T21:38:26.878Z,10.70
2017-11-21T21:40:59.480Z,10.70
2017-11-21T21:43:30.400Z,10.70
2017-11-21T21:46:02.931Z,10.70
2017-11-21T21:48:34.818Z,10.70
2017-11-21T21:51:05.879Z,10.70
2017-11-21T21:53:37.979Z,10.50
2017-11-21T21:56:10.918Z,10.50
2017-11-21T21:58:42.881Z,10.60
2017-11-21T22:01:14.140Z,10.50
2017-11-21T22:03:47.218Z,10.50
2017-11-21T22:06:18.459Z,10.50
2017-11-21T22:08:49.299Z,10.50
2017-11-21T22:11:21.058Z,10.40
2017-11-21T22:13:52.198Z,10.30
2017-11-21T22:16:22.921Z,10.00
2017-11-21T22:18:55.818Z,10.00
2017-11-21T22:21:27.059Z,9.90
2017-11-21T22:23:58.599Z,9.70
2017-11-21T22:26:30.678Z,9.80
2017-11-21T22:29:02.638Z,9.90
2017-11-21T22:31:34.959Z,9.90
2017-11-21T22:34:07.279Z,9.90
2017-11-21T22:36:42.419Z,10.10
2017-11-21T22:39:14.058Z,10.10
2017-11-21T22:41:45.735Z,10.20
2017-11-21T22:44:16.559Z,10.20
2017-11-21T22:46:48.318Z,10.40
2017-11-21T22:49:19.959Z,10.40
2017-11-21T22:51:52.659Z,10.50
2017-11-21T22:54:23.699Z,10.50
2017-11-21T22:56:56.278Z,10.60
2017-11-21T22:59:27.718Z,10.60
2017-11-21T23:02:00.600Z,10.50
2017-11-21T23:04:31.438Z,10.50
2017-11-21T23:07:03.099Z,10.60
2017-11-21T23:09:35.679Z,10.60
2017-11-21T23:12:07.839Z,10.60
2017-11-21T23:14:39.940Z,10.50
2017-11-21T23:17:14.319Z,10.60
2017-11-21T23:19:46.180Z,10.60
2017-11-21T23:22:19.872Z,10.60
2017-11-21T23:24:51.999Z,10.50
2017-11-21T23:27:23.179Z,10.50
2017-11-21T23:29:54.939Z,10.50
2017-11-21T23:32:26.398Z,10.50
2017-11-21T23:34:57.847Z,10.40
2017-11-21T23:37:28.678Z,10.40
2017-11-21T23:39:59.819Z,10.30
2017-11-21T23:42:33.620Z,10.30
2017-11-21T23:45:05.080Z,10.30
2017-11-21T23:47:37.338Z,10.20
2017-11-21T23:50:07.458Z,10.20
2017-11-21T23:52:43.959Z,10.10
2017-11-21T23:55:20.598Z,10.10
2017-11-21T23:57:53.498Z,10.10
